Svend Maersk — OYJS2 — position and weather

sailwx.info

Track history (hours):
 
Tides and Currents Weather Stations Pressure Air Temp Water Temp Dewpoint Dewpoint Depression Visibility Wind Speed Wind Dir Waves Ship Positions

Svend Maersk

Last reported at 2014-Nov-08 09:32 UTC. Time now 2014-Nov-25 01:56 UTC.
Position N 30°34' E 122°50'.
Warning: this ship's position is 16 days out of date.

Type: Ship (hazmat cat A). MMSI: 219791000.

Date/timePositionNaut miles runAvg speedWind from/ knotsBaromVisibWave heightAir tempDewpointWater temp
2014-Nov-08 09:32N 30°34' E 122°50'2416.6
2014-Nov-08 08:06N 30°32' E 122°23'713.0
2014-Nov-08 07:33N 30°33' E 122°15'1110.4
2014-Nov-08 06:32N 30°37' E 122°04'59 1.4
2014-Nov-06 11:32N 29°46' E 122°37'6 5.7
2014-Nov-06 10:32N 29°45' E 122°30'4 4.4
2014-Nov-06 09:32N 29°44' E 122°25'8 7.5
2014-Nov-06 08:31N 29°46' E 122°17'1110.9
2014-Nov-06 07:33N 29°48' E 122°05'4 4.1
2014-Nov-06 06:30N 29°46' E 122°00'0 0.0
2014-Nov-06 00:11N 29°46' E 122°00'0 0.0
2014-Nov-05 18:29N 29°46' E 122°00'0 0.0
2014-Nov-05 15:33N 29°46' E 122°00'2 1.8
2014-Nov-05 14:34N 29°47' E 122°02'10 9.7
2014-Nov-05 13:33N 29°50' E 122°13'1010.4
2014-Nov-05 12:33N 29°45' E 122°23'1313.1
2014-Nov-05 11:34N 29°46' E 122°38'38011.5
2014-Nov-04 02:27N 35°55' E 120°47'1112.6
2014-Nov-04 01:33N 35°58' E 120°34'1312.9
2014-Nov-04 00:33N 36°01' E 120°18'5 4.8
2014-Nov-03 23:32N 36°01' E 120°12'0 0.0
2014-Nov-03 22:33N 36°01' E 120°12'0 0.0
2014-Nov-03 21:28N 36°01' E 120°12'0 0.0
2014-Nov-03 20:16N 36°01' E 120°12'0 0.0
2014-Nov-03 16:16N 36°01' E 120°12'  
Track history (hours):
 
Tides and Currents Weather Stations Pressure Air Temp Water Temp Dewpoint Dewpoint Depression Visibility Wind Speed Wind Dir Waves Ship Positions

Svend Maersk

Last reported at 2014-Nov-08 09:32 UTC. Time now 2014-Nov-25 01:56 UTC.
Position N 30°34' E 122°50'.
Warning: this ship's position is 16 days out of date.

Type: Ship (hazmat cat A). MMSI: 219791000.

Date/timePositionNaut miles runAvg speedWind from/ knotsBaromVisibWave heightAir tempDewpointWater temp
2014-Nov-08 09:32N 30°34' E 122°50'2416.6
2014-Nov-08 08:06N 30°32' E 122°23'713.0
2014-Nov-08 07:33N 30°33' E 122°15'1110.4
2014-Nov-08 06:32N 30°37' E 122°04'59 1.4
2014-Nov-06 11:32N 29°46' E 122°37'6 5.7
2014-Nov-06 10:32N 29°45' E 122°30'4 4.4
2014-Nov-06 09:32N 29°44' E 122°25'8 7.5
2014-Nov-06 08:31N 29°46' E 122°17'1110.9
2014-Nov-06 07:33N 29°48' E 122°05'4 4.1
2014-Nov-06 06:30N 29°46' E 122°00'0 0.0
2014-Nov-06 00:11N 29°46' E 122°00'0 0.0
2014-Nov-05 18:29N 29°46' E 122°00'0 0.0
2014-Nov-05 15:33N 29°46' E 122°00'2 1.8
2014-Nov-05 14:34N 29°47' E 122°02'10 9.7
2014-Nov-05 13:33N 29°50' E 122°13'1010.4
2014-Nov-05 12:33N 29°45' E 122°23'1313.1
2014-Nov-05 11:34N 29°46' E 122°38'38011.5
2014-Nov-04 02:27N 35°55' E 120°47'1112.6
2014-Nov-04 01:33N 35°58' E 120°34'1312.9
2014-Nov-04 00:33N 36°01' E 120°18'5 4.8
2014-Nov-03 23:32N 36°01' E 120°12'0 0.0
2014-Nov-03 22:33N 36°01' E 120°12'0 0.0
2014-Nov-03 21:28N 36°01' E 120°12'0 0.0
2014-Nov-03 20:16N 36°01' E 120°12'0 0.0
2014-Nov-03 16:16N 36°01' E 120°12'  

Dump ship's entire track history